Time;durP1;ratioP1;P1;durP2;ratioP2;P2;SDS_P1;SDS_P2;PMS_P1;PMS_P2;Temp;Humidity;BMP_temperature;BMP_pressure;BME280_temperature;BME280_humidity;BME280_pressure;Samples;Min_cycle;Max_cycle;Signal;HPM_P1;HPM_P2
2022/01/19 00:01:15;;;;;;;0.30;0.30;;;2.80;94.70;;;;;;5054293;28;20180;-69
2022/01/19 00:03:41;;;;;;;0.30;0.30;;;2.90;94.80;;;;;;5054216;28;20251;-69
2022/01/19 00:06:07;;;;;;;0.30;0.30;;;3.00;94.60;;;;;;5053784;28;20167;-69
2022/01/19 00:08:32;;;;;;;0.30;0.30;;;3.00;94.50;;;;;;5053877;28;20418;-68
2022/01/19 00:10:58;;;;;;;0.30;0.30;;;2.90;94.40;;;;;;5054004;28;20918;-69
2022/01/19 00:13:25;;;;;;;0.33;0.33;;;3.00;94.50;;;;;;5053982;28;20163;-69
2022/01/19 00:15:51;;;;;;;0.32;0.32;;;3.00;94.50;;;;;;5053763;28;20267;-69
2022/01/19 00:18:20;;;;;;;0.40;0.40;;;3.00;94.30;;;;;;5053714;28;20194;-69
2022/01/19 00:20:48;;;;;;;0.30;0.30;;;3.00;94.30;;;;;;5053787;28;20168;-69
2022/01/19 00:23:18;;;;;;;0.30;0.30;;;2.90;94.40;;;;;;5053804;28;20172;-69
2022/01/19 00:25:45;;;;;;;0.30;0.30;;;2.80;94.30;;;;;;5053562;28;20227;-69
2022/01/19 00:28:11;;;;;;;0.35;0.35;;;2.80;94.40;;;;;;5053738;28;20195;-69
2022/01/19 00:30:37;;;;;;;0.30;0.30;;;2.70;94.60;;;;;;5053536;28;20168;-69
2022/01/19 00:33:03;;;;;;;1.07;1.07;;;2.80;94.50;;;;;;5053801;28;20951;-69
2022/01/19 00:35:29;;;;;;;0.40;0.40;;;2.80;94.50;;;;;;5053425;28;20406;-69
2022/01/19 00:37:54;;;;;;;0.35;0.35;;;3.00;94.50;;;;;;5053435;28;20187;-69
2022/01/19 00:40:20;;;;;;;0.30;0.30;;;3.00;94.10;;;;;;5053574;28;20182;-69
2022/01/19 00:42:46;;;;;;;0.30;0.30;;;3.00;94.20;;;;;;5053666;28;20187;-68
2022/01/19 00:45:14;;;;;;;0.30;0.30;;;3.00;94.20;;;;;;5053507;28;20239;-69
2022/01/19 00:47:40;;;;;;;0.40;0.40;;;3.10;94.20;;;;;;5053134;28;20261;-69
2022/01/19 00:50:08;;;;;;;0.30;0.30;;;3.00;94.10;;;;;;5053569;28;20657;-69
2022/01/19 00:52:36;;;;;;;0.30;0.30;;;2.70;94.40;;;;;;5053390;28;20172;-68
2022/01/19 00:55:07;;;;;;;0.40;0.40;;;2.70;94.70;;;;;;5053272;28;20564;-69
2022/01/19 00:57:33;;;;;;;0.30;0.30;;;2.80;94.60;;;;;;5053184;28;20204;-69
2022/01/19 00:59:58;;;;;;;0.40;0.40;;;2.70;94.50;;;;;;5053360;28;20189;-69
2022/01/19 01:02:24;;;;;;;0.30;0.30;;;2.50;94.50;;;;;;5053268;28;20563;-69
2022/01/19 01:04:50;;;;;;;0.30;0.30;;;2.60;94.90;;;;;;5053186;28;20556;-69
2022/01/19 01:07:16;;;;;;;0.40;0.40;;;2.70;94.70;;;;;;5053045;28;20215;-69
2022/01/19 01:09:42;;;;;;;0.30;0.30;;;2.90;94.60;;;;;;5053219;28;20634;-69
2022/01/19 01:12:13;;;;;;;0.40;0.40;;;3.00;94.40;;;;;;5053241;28;20532;-69
2022/01/19 01:20:11;;;;;;;0.65;0.65;;;3.00;94.20;;;;;;5057150;28;20269;-69
2022/01/19 01:22:38;;;;;;;0.30;0.30;;;3.00;94.20;;;;;;5056961;28;20258;-69
2022/01/19 01:25:05;;;;;;;0.30;0.30;;;3.00;94.10;;;;;;5056934;28;20556;-69
2022/01/19 01:27:30;;;;;;;0.30;0.30;;;3.00;94.10;;;;;;5056754;28;20202;-69
2022/01/19 01:29:56;;;;;;;0.60;0.60;;;3.00;94.10;;;;;;5057088;28;20179;-69
2022/01/19 01:32:22;;;;;;;0.30;0.30;;;3.00;94.00;;;;;;5057103;28;20494;-69
2022/01/19 01:34:47;;;;;;;0.30;0.30;;;3.00;94.00;;;;;;5057022;28;20182;-69
2022/01/19 01:37:13;;;;;;;0.40;0.40;;;3.00;94.00;;;;;;5056602;28;20655;-69
2022/01/19 01:39:39;;;;;;;0.30;0.30;;;3.00;94.00;;;;;;5057022;28;20172;-68
2022/01/19 01:42:09;;;;;;;0.30;0.30;;;2.90;93.90;;;;;;5057083;28;20175;-69
2022/01/19 01:44:37;;;;;;;0.30;0.30;;;2.90;94.10;;;;;;5056667;28;20666;-69
2022/01/19 01:47:04;;;;;;;0.30;0.30;;;2.90;94.30;;;;;;5056616;28;20224;-69
2022/01/19 01:54:52;;;;;;;0.30;0.30;;;2.80;94.00;;;;;;5056629;28;20198;-69
2022/01/19 01:57:18;;;;;;;0.38;0.38;;;2.80;94.10;;;;;;5056340;28;20192;-69
2022/01/19 01:59:43;;;;;;;0.30;0.30;;;2.70;94.10;;;;;;5056289;28;20704;-68
2022/01/19 02:02:09;;;;;;;0.30;0.30;;;2.70;94.20;;;;;;5055241;28;20266;-69
2022/01/19 02:04:40;;;;;;;0.30;0.30;;;2.70;94.20;;;;;;5056243;28;20199;-69
2022/01/19 02:09:44;;;;;;;0.30;0.30;;;2.60;94.20;;;;;;5056645;28;20217;-69
2022/01/19 02:23:23;;;;;;;0.30;0.30;;;2.40;94.10;;;;;;5056363;28;20548;-69
2022/01/19 02:25:55;;;;;;;0.30;0.30;;;2.40;94.30;;;;;;5055676;28;20285;-68
2022/01/19 02:41:42;;;;;;;0.40;0.40;;;1.70;94.50;;;;;;5056055;28;20181;-69
2022/01/19 02:44:12;;;;;;;0.40;0.40;;;1.50;94.60;;;;;;5054215;28;20568;-69
2022/01/19 02:49:09;;;;;;;0.30;0.30;;;1.40;94.90;;;;;;5055349;28;20179;-69
2022/01/19 02:49:27;;;;;;;0.30;0.30;;;1.30;95.00;;;;;;5055285;28;20206;-69
2022/01/19 02:51:54;;;;;;;0.40;0.40;;;1.20;95.30;;;;;;5055668;28;20247;-69
2022/01/19 02:54:23;;;;;;;0.40;0.40;;;1.00;95.40;;;;;;5055308;28;20211;-68
2022/01/19 02:56:52;;;;;;;0.40;0.40;;;0.90;95.60;;;;;;5055198;28;20197;-68
2022/01/19 02:59:26;;;;;;;0.40;0.40;;;0.80;95.80;;;;;;5055110;28;20205;-69
2022/01/19 03:10:05;;;;;;;0.40;0.40;;;0.50;96.10;;;;;;5055277;28;20735;-69
2022/01/19 03:12:31;;;;;;;0.30;0.30;;;0.50;96.10;;;;;;5055124;28;20174;-69
2022/01/19 03:14:57;;;;;;;0.40;0.40;;;0.40;96.00;;;;;;5055103;28;20178;-69
2022/01/19 03:17:23;;;;;;;0.40;0.40;;;0.40;96.00;;;;;;5054681;28;20230;-69
2022/01/19 03:19:49;;;;;;;0.40;0.40;;;0.30;95.90;;;;;;5055107;28;20602;-68
2022/01/19 03:22:17;;;;;;;0.40;0.40;;;0.30;95.90;;;;;;5054911;28;20166;-68
2022/01/19 03:24:49;;;;;;;0.50;0.50;;;0.20;96.20;;;;;;5054694;28;20538;-68
2022/01/19 03:27:15;;;;;;;0.40;0.40;;;0.20;95.80;;;;;;5054832;28;20166;-69
2022/01/19 03:29:41;;;;;;;0.50;0.50;;;0.10;95.90;;;;;;5054629;28;20662;-68
2022/01/19 03:32:07;;;;;;;0.40;0.40;;;0.10;95.90;;;;;;5054608;28;20185;-69
2022/01/19 03:34:32;;;;;;;0.50;0.50;;;0.00;95.90;;;;;;5054817;28;20166;-69
2022/01/19 03:36:58;;;;;;;0.40;0.40;;;-0.10;95.90;;;;;;5054392;28;20260;-68
2022/01/19 03:39:24;;;;;;;0.47;0.47;;;-0.20;96.00;;;;;;5053795;28;20162;-69
2022/01/19 03:41:49;;;;;;;0.40;0.40;;;-0.20;96.00;;;;;;5054709;28;20174;-69
2022/01/19 03:44:15;;;;;;;0.30;0.30;;;-0.20;96.10;;;;;;5054470;28;20460;-69
2022/01/19 03:46:54;;;;;;;0.30;0.30;;;-0.30;96.00;;;;;;5054215;28;20236;-69
2022/01/19 03:49:24;;;;;;;0.40;0.40;;;-0.30;96.10;;;;;;5054479;28;20190;-68
2022/01/19 03:51:58;;;;;;;0.50;0.50;;;-0.30;96.10;;;;;;5054569;28;20180;-68
2022/01/19 03:54:42;;;;;;;0.50;0.50;;;-0.30;96.00;;;;;;5054389;28;20643;-69
2022/01/19 03:57:09;;;;;;;0.50;0.50;;;-0.40;95.80;;;;;;5054017;28;20174;-68
2022/01/19 03:59:35;;;;;;;0.45;0.45;;;-0.50;95.70;;;;;;5054139;28;20182;-68
2022/01/19 04:02:01;;;;;;;0.50;0.50;;;-0.50;95.70;;;;;;5054274;28;20204;-68
2022/01/19 04:07:15;;;;;;;0.50;0.50;;;-0.60;95.70;;;;;;5053791;28;20540;-68
2022/01/19 04:09:44;;;;;;;1.58;1.35;;;-0.60;95.80;;;;;;5054198;28;20162;-68
2022/01/19 04:12:14;;;;;;;0.30;0.30;;;-0.70;95.70;;;;;;5054102;28;20178;-68
2022/01/19 04:14:40;;;;;;;0.55;0.55;;;-0.70;95.70;;;;;;5054052;28;20189;-68
2022/01/19 04:17:12;;;;;;;0.50;0.50;;;-0.80;95.80;;;;;;5053625;28;20550;-68
2022/01/19 04:22:09;;;;;;;0.50;0.50;;;-0.80;95.80;;;;;;5054266;28;20228;-69
2022/01/19 04:24:37;;;;;;;0.50;0.50;;;-0.80;96.20;;;;;;5053620;28;20217;-68
2022/01/19 04:30:09;;;;;;;0.40;0.40;;;-0.80;96.20;;;;;;5053929;28;20212;-68
2022/01/19 04:32:48;;;;;;;0.30;0.30;;;-0.80;96.30;;;;;;5050508;28;20695;-68
2022/01/19 04:35:19;;;;;;;0.40;0.40;;;-0.80;96.20;;;;;;5053477;28;20291;-68
2022/01/19 05:07:20;;;;;;;0.50;0.50;;;-1.10;96.40;;;;;;5053374;28;20177;-69
2022/01/19 05:10:00;;;;;;;0.50;0.50;;;-1.10;96.50;;;;;;5053101;28;20155;-69
2022/01/19 05:15:10;;;;;;;0.60;0.60;;;-1.10;96.50;;;;;;5053291;28;20185;-68
2022/01/19 05:17:36;;;;;;;0.70;0.70;;;-1.10;96.40;;;;;;5052839;28;20190;-68
2022/01/19 05:20:12;;;;;;;0.52;0.52;;;-1.10;96.50;;;;;;5052962;28;20423;-68
2022/01/19 05:22:38;;;;;;;0.60;0.60;;;-1.10;96.50;;;;;;5053169;28;20530;-69
2022/01/19 05:25:04;;;;;;;0.60;0.60;;;-1.10;96.50;;;;;;5053207;28;20197;-68
2022/01/19 05:27:31;;;;;;;0.60;0.60;;;-1.10;96.50;;;;;;5052839;28;20666;-68
2022/01/19 05:29:57;;;;;;;0.47;0.47;;;-1.20;96.40;;;;;;5052967;28;20532;-69
2022/01/19 05:32:23;;;;;;;0.40;0.40;;;-1.20;96.50;;;;;;5053174;28;20171;-68
2022/01/19 05:34:49;;;;;;;0.40;0.40;;;-1.20;96.50;;;;;;5052904;28;20167;-68
2022/01/19 05:37:15;;;;;;;0.60;0.60;;;-1.20;96.70;;;;;;5052716;28;20210;-68
2022/01/19 05:39:41;;;;;;;0.60;0.60;;;-1.20;96.70;;;;;;5052720;28;20248;-68
2022/01/19 05:42:13;;;;;;;0.50;0.50;;;-1.10;96.70;;;;;;5053204;28;20228;-68
2022/01/19 05:44:40;;;;;;;0.50;0.50;;;-1.10;96.70;;;;;;5053019;28;20263;-69
2022/01/19 05:47:06;;;;;;;0.45;0.45;;;-1.20;96.70;;;;;;5052599;28;20170;-68
2022/01/19 05:49:31;;;;;;;0.67;0.67;;;-1.20;96.60;;;;;;5051529;28;20640;-68
2022/01/19 05:51:57;;;;;;;0.63;0.63;;;-1.20;96.60;;;;;;5052748;28;20171;-68
2022/01/19 05:54:23;;;;;;;0.60;0.60;;;-1.20;96.70;;;;;;5051574;28;20174;-68
2022/01/19 05:56:50;;;;;;;0.60;0.60;;;-1.30;97.00;;;;;;5052655;28;20170;-69
2022/01/19 05:59:16;;;;;;;0.55;0.55;;;-1.20;97.20;;;;;;5052537;28;20260;-69
2022/01/19 06:01:42;;;;;;;0.50;0.50;;;-1.10;97.20;;;;;;5051931;28;20170;-68
2022/01/19 06:04:07;;;;;;;0.50;0.50;;;-1.20;97.00;;;;;;5056188;28;20202;-69
2022/01/19 06:06:33;;;;;;;0.50;0.50;;;-1.10;96.90;;;;;;5056113;28;20188;-68
2022/01/19 06:09:01;;;;;;;0.50;0.50;;;-1.10;96.90;;;;;;5056110;28;20265;-68
2022/01/19 06:11:27;;;;;;;0.40;0.40;;;-1.20;96.80;;;;;;5056283;28;20247;-68
2022/01/19 06:13:52;;;;;;;0.50;0.50;;;-1.10;96.90;;;;;;5056126;28;20198;-69
2022/01/19 06:16:18;;;;;;;0.50;0.50;;;-1.10;97.10;;;;;;5055939;28;20175;-68
2022/01/19 06:18:44;;;;;;;0.57;0.57;;;-1.10;97.40;;;;;;5055953;28;20436;-68
2022/01/19 06:21:10;;;;;;;0.40;0.40;;;-1.10;97.50;;;;;;5055976;28;20167;-68
2022/01/19 06:23:37;;;;;;;0.40;0.40;;;-1.00;97.60;;;;;;5056034;28;20231;-68
2022/01/19 06:26:05;;;;;;;0.40;0.40;;;-0.90;97.70;;;;;;5055633;28;20198;-68
2022/01/19 06:28:31;;;;;;;0.60;0.60;;;-0.90;97.80;;;;;;5055914;28;20546;-68
2022/01/19 06:30:57;;;;;;;0.50;0.50;;;-0.80;97.90;;;;;;5055738;28;20170;-69
2022/01/19 06:33:23;;;;;;;0.40;0.40;;;-0.80;97.70;;;;;;5056204;28;20270;-69
2022/01/19 06:35:48;;;;;;;0.40;0.40;;;-0.70;97.70;;;;;;5055534;28;20170;-68
2022/01/19 06:38:14;;;;;;;0.60;0.60;;;-0.70;97.60;;;;;;5055565;28;20465;-68
2022/01/19 06:40:40;;;;;;;0.40;0.40;;;-0.60;97.80;;;;;;5055682;28;20185;-68
2022/01/19 06:43:06;;;;;;;0.40;0.40;;;-0.60;97.60;;;;;;5055780;28;20409;-68
2022/01/19 06:45:31;;;;;;;0.40;0.40;;;-0.60;97.30;;;;;;5055499;28;20190;-68
2022/01/19 06:47:57;;;;;;;0.47;0.47;;;-0.60;97.30;;;;;;5055581;28;20222;-68
2022/01/19 06:50:24;;;;;;;0.40;0.40;;;-0.60;97.40;;;;;;5055496;28;20462;-68
2022/01/19 06:52:50;;;;;;;0.40;0.40;;;-0.60;97.50;;;;;;5055605;28;20166;-68
2022/01/19 06:55:17;;;;;;;0.40;0.40;;;-0.60;97.70;;;;;;5055613;28;20655;-68
2022/01/19 06:57:44;;;;;;;0.40;0.40;;;-0.50;97.90;;;;;;5055138;28;20797;-68
2022/01/19 07:00:11;;;;;;;0.50;0.50;;;-0.50;97.90;;;;;;5055066;28;20618;-68
2022/01/19 07:02:36;;;;;;;0.50;0.50;;;-0.40;97.70;;;;;;5055455;28;20166;-68
2022/01/19 07:05:04;;;;;;;0.53;0.53;;;-0.40;97.60;;;;;;5055217;28;20694;-69
2022/01/19 07:07:30;;;;;;;0.40;0.40;;;-0.40;97.80;;;;;;5054872;28;20605;-69
2022/01/19 07:10:00;;;;;;;0.40;0.40;;;-0.30;98.00;;;;;;5055051;28;20174;-69
2022/01/19 07:12:29;;;;;;;0.40;0.40;;;-0.10;98.00;;;;;;5055155;28;20586;-68
2022/01/19 07:14:54;;;;;;;0.40;0.40;;;-0.10;98.10;;;;;;5054069;28;20570;-69
2022/01/19 07:17:20;;;;;;;0.40;0.40;;;0.00;97.80;;;;;;5053483;28;20272;-69
2022/01/19 07:19:47;;;;;;;0.40;0.40;;;0.10;97.70;;;;;;5055212;28;20177;-69
2022/01/19 07:22:15;;;;;;;0.40;0.40;;;0.20;97.60;;;;;;5054790;28;20413;-69
2022/01/19 07:24:41;;;;;;;0.40;0.40;;;0.20;97.90;;;;;;5054857;28;20224;-69
2022/01/19 07:27:07;;;;;;;0.40;0.40;;;0.30;97.80;;;;;;5054476;28;20167;-69
2022/01/19 07:29:33;;;;;;;0.40;0.40;;;0.40;97.80;;;;;;5054687;28;20173;-69
2022/01/19 07:31:59;;;;;;;0.30;0.30;;;0.40;97.20;;;;;;5055091;28;20650;-69
2022/01/19 07:34:25;;;;;;;0.30;0.30;;;0.50;97.00;;;;;;5054677;28;20170;-69
2022/01/19 07:36:53;;;;;;;0.30;0.30;;;0.50;96.90;;;;;;5054365;28;20185;-68
2022/01/19 07:39:19;;;;;;;0.40;0.40;;;0.60;96.90;;;;;;5054622;28;20671;-68
2022/01/19 07:41:44;;;;;;;0.30;0.30;;;0.70;96.70;;;;;;5054586;28;20182;-69
2022/01/19 07:44:10;;;;;;;0.40;0.40;;;0.60;96.60;;;;;;5054342;28;20674;-69
2022/01/19 07:46:36;;;;;;;0.30;0.30;;;0.70;96.60;;;;;;5054359;28;20170;-68
2022/01/19 07:49:01;;;;;;;0.40;0.40;;;0.80;96.40;;;;;;5054239;28;20200;-69
2022/01/19 07:51:27;;;;;;;0.30;0.30;;;0.80;96.50;;;;;;5054322;28;20212;-69
2022/01/19 07:53:53;;;;;;;0.40;0.40;;;0.80;96.50;;;;;;5054352;28;20166;-69
2022/01/19 07:56:18;;;;;;;0.40;0.40;;;0.90;96.70;;;;;;5053978;28;20260;-68
2022/01/19 07:58:44;;;;;;;0.30;0.30;;;1.00;96.70;;;;;;5053934;28;20244;-69
2022/01/19 08:01:10;;;;;;;0.30;0.30;;;1.10;96.60;;;;;;5054183;28;20177;-69
2022/01/19 08:03:35;;;;;;;0.40;0.40;;;1.20;96.50;;;;;;5054130;28;20170;-69
2022/01/19 08:06:01;;;;;;;0.30;0.30;;;1.30;96.40;;;;;;5053790;28;20464;-69
2022/01/19 08:08:27;;;;;;;0.40;0.40;;;1.30;96.00;;;;;;5053933;28;20277;-69
2022/01/19 08:10:52;;;;;;;0.40;0.40;;;1.40;96.70;;;;;;5053921;28;20166;-69
2022/01/19 08:13:18;;;;;;;0.30;0.30;;;2.00;98.20;;;;;;5053870;28;20171;-69
2022/01/19 08:15:44;;;;;;;0.30;0.30;;;3.10;97.20;;;;;;5053727;28;20549;-69
2022/01/19 08:18:10;;;;;;;0.40;0.40;;;4.40;97.30;;;;;;5053754;28;20204;-69
2022/01/19 08:20:35;;;;;;;0.33;0.33;;;5.40;92.90;;;;;;5053921;28;20163;-69
2022/01/19 08:23:03;;;;;;;0.40;0.40;;;6.10;90.20;;;;;;5053969;28;20174;-69
2022/01/19 08:25:29;;;;;;;0.30;0.30;;;6.80;82.00;;;;;;5053310;28;20198;-69
2022/01/19 08:27:55;;;;;;;0.67;0.67;;;7.60;77.70;;;;;;5053625;28;20560;-70
2022/01/19 08:30:20;;;;;;;0.40;0.40;;;8.30;73.80;;;;;;5053719;28;20646;-69
2022/01/19 08:32:46;;;;;;;0.40;0.40;;;8.80;70.10;;;;;;5053706;28;20212;-69
2022/01/19 08:35:12;;;;;;;0.30;0.30;;;9.00;69.60;;;;;;5053688;28;20581;-69
2022/01/19 08:37:38;;;;;;;0.33;0.33;;;9.30;67.10;;;;;;5053301;28;20306;-69
2022/01/19 08:40:06;;;;;;;0.40;0.40;;;9.60;66.60;;;;;;5053429;28;20414;-69
2022/01/19 08:42:33;;;;;;;0.30;0.30;;;9.60;64.10;;;;;;5053484;28;20196;-69
2022/01/19 08:45:05;;;;;;;0.35;0.35;;;9.60;63.60;;;;;;5053396;28;20250;-69
2022/01/19 08:47:31;;;;;;;0.40;0.40;;;9.70;64.10;;;;;;5053226;28;20245;-69
2022/01/19 08:49:57;;;;;;;0.30;0.30;;;10.10;62.10;;;;;;5053425;28;20168;-69
2022/01/19 08:52:23;;;;;;;0.40;0.40;;;10.40;60.00;;;;;;5053631;28;20433;-69
2022/01/19 08:54:48;;;;;;;0.50;0.50;;;10.00;60.70;;;;;;5053558;28;20555;-69
2022/01/19 08:57:14;;;;;;;0.53;0.53;;;9.90;61.80;;;;;;5053106;28;20411;-69
2022/01/19 08:59:40;;;;;;;0.60;0.60;;;10.00;62.00;;;;;;5053168;28;20202;-69
2022/01/19 09:02:06;;;;;;;0.70;0.70;;;10.00;60.90;;;;;;5052139;28;20173;-69
2022/01/19 09:04:32;;;;;;;0.60;0.60;;;10.10;60.70;;;;;;5053416;28;20219;-69
2022/01/19 09:06:59;;;;;;;0.70;0.70;;;10.60;60.20;;;;;;5053213;28;20177;-69
2022/01/19 09:09:25;;;;;;;0.80;0.80;;;11.40;58.10;;;;;;5053188;28;20415;-69
2022/01/19 09:11:51;;;;;;;0.40;0.40;;;11.80;57.30;;;;;;5053138;28;20655;-69
2022/01/19 09:14:17;;;;;;;0.30;0.30;;;12.60;55.40;;;;;;5053261;28;20170;-67
2022/01/19 09:16:44;;;;;;;0.40;0.40;;;13.20;53.60;;;;;;5053034;28;20909;-67
2022/01/19 09:19:12;;;;;;;0.82;0.82;;;13.70;51.80;;;;;;5053035;28;20842;-67
2022/01/19 09:21:37;;;;;;;1.47;1.37;;;14.40;50.60;;;;;;5053293;28;20584;-67
2022/01/19 09:24:03;;;;;;;0.30;0.30;;;14.80;48.90;;;;;;5052858;28;20491;-68
2022/01/19 09:26:30;;;;;;;0.50;0.50;;;15.20;48.00;;;;;;5052807;28;20901;-67
2022/01/19 09:28:56;;;;;;;0.40;0.40;;;15.50;47.70;;;;;;5052837;28;20837;-67
2022/01/19 09:31:22;;;;;;;0.30;0.30;;;15.70;46.60;;;;;;5052881;28;20449;-67
2022/01/19 09:33:55;;;;;;;0.40;0.40;;;16.40;45.00;;;;;;5053118;28;20407;-68
2022/01/19 09:36:32;;;;;;;0.30;0.30;;;17.00;44.30;;;;;;5052791;28;20409;-68
2022/01/19 09:38:59;;;;;;;0.30;0.30;;;17.80;42.90;;;;;;5056941;28;20786;-67
2022/01/19 09:41:25;;;;;;;0.30;0.30;;;18.40;41.00;;;;;;5056900;28;20454;-68
2022/01/19 09:43:51;;;;;;;0.30;0.30;;;18.30;40.30;;;;;;5056686;28;20437;-67
2022/01/19 09:46:16;;;;;;;0.60;0.60;;;18.20;40.70;;;;;;5056332;28;20808;-68
2022/01/19 09:48:42;;;;;;;0.30;0.30;;;18.50;39.40;;;;;;5056668;28;20239;-68
2022/01/19 09:51:08;;;;;;;0.30;0.30;;;18.70;39.30;;;;;;5056482;28;20624;-68
2022/01/19 09:53:33;;;;;;;0.40;0.40;;;19.00;38.30;;;;;;5056485;28;20627;-68
2022/01/19 09:55:59;;;;;;;0.57;0.57;;;19.10;38.00;;;;;;5056225;28;20599;-68
2022/01/19 09:58:25;;;;;;;0.30;0.30;;;19.60;37.60;;;;;;5056342;28;20281;-68
2022/01/19 10:00:52;;;;;;;0.30;0.30;;;20.20;36.70;;;;;;5056403;28;20428;-68
2022/01/19 10:03:28;;;;;;;0.90;0.90;;;20.50;35.70;;;;;;5056454;28;20226;-68
2022/01/19 10:06:05;;;;;;;0.40;0.40;;;20.00;36.00;;;;;;5056112;28;20452;-68
2022/01/19 10:08:32;;;;;;;0.80;0.80;;;19.90;35.30;;;;;;5056259;28;20445;-68
2022/01/19 10:11:08;;;;;;;0.30;0.30;;;19.80;35.60;;;;;;5056289;28;20400;-68
2022/01/19 10:19:23;;;;;;;0.30;0.30;;;19.20;35.50;;;;;;5056251;28;20463;-68
2022/01/19 10:22:18;;;;;;;0.33;0.33;;;19.00;36.40;;;;;;5056295;28;20397;-68
2022/01/19 10:24:48;;;;;;;0.50;0.50;;;19.10;36.00;;;;;;5055631;28;20886;-68
2022/01/19 10:27:20;;;;;;;0.30;0.30;;;18.90;36.50;;;;;;5055786;28;20451;-68
2022/01/19 10:29:47;;;;;;;0.30;0.30;;;19.20;36.20;;;;;;5055840;28;20828;-68
2022/01/19 10:32:13;;;;;;;0.70;0.70;;;19.40;36.00;;;;;;5056516;28;20401;-68
2022/01/19 10:34:39;;;;;;;0.30;0.30;;;18.80;36.00;;;;;;5055924;28;20442;-68
2022/01/19 10:37:06;;;;;;;0.40;0.40;;;18.30;37.00;;;;;;5054173;28;20989;-68
2022/01/19 10:39:40;;;;;;;0.30;0.30;;;17.50;37.80;;;;;;5055811;28;20412;-68
2022/01/19 10:42:08;;;;;;;0.40;0.40;;;16.50;39.50;;;;;;5055689;28;20483;-68
2022/01/19 10:44:46;;;;;;;0.30;0.30;;;15.10;40.60;;;;;;5055566;28;20535;-68
2022/01/19 10:47:11;;;;;;;0.30;0.30;;;13.50;43.10;;;;;;5055287;28;20922;-67
2022/01/19 10:49:55;;;;;;;0.47;0.47;;;12.20;46.10;;;;;;5055228;28;20401;-67
2022/01/19 10:52:37;;;;;;;0.30;0.30;;;10.80;48.30;;;;;;5055687;28;20990;-67
2022/01/19 10:55:06;;;;;;;0.30;0.30;;;9.90;52.40;;;;;;5055287;28;20208;-67
2022/01/19 10:57:35;;;;;;;0.43;0.43;;;9.20;54.20;;;;;;5055044;28;20181;-67
2022/01/19 11:00:21;;;;;;;2.67;1.63;;;8.60;56.00;;;;;;5055052;28;20329;-67
2022/01/19 11:02:48;;;;;;;0.40;0.40;;;7.90;57.40;;;;;;5055002;28;20179;-67
2022/01/19 11:05:14;;;;;;;0.40;0.40;;;7.30;59.50;;;;;;5055417;28;20215;-67
2022/01/19 11:07:40;;;;;;;0.40;0.40;;;6.80;61.70;;;;;;5054950;28;20186;-67
2022/01/19 11:10:13;;;;;;;0.40;0.40;;;6.40;64.40;;;;;;5055020;28;20174;-67
2022/01/19 11:12:48;;;;;;;0.30;0.30;;;5.90;67.20;;;;;;5055069;28;20492;-67
2022/01/19 11:15:18;;;;;;;0.40;0.40;;;5.70;71.30;;;;;;5055136;28;20223;-67
2022/01/19 11:17:45;;;;;;;0.40;0.40;;;5.70;74.80;;;;;;5054562;28;20186;-67
2022/01/19 11:20:16;;;;;;;0.30;0.30;;;5.40;78.20;;;;;;5054728;28;20312;-69
2022/01/19 11:23:06;;;;;;;0.40;0.40;;;5.40;81.30;;;;;;5054905;28;20567;-69
2022/01/19 11:25:43;;;;;;;0.40;0.40;;;5.40;84.10;;;;;;5054511;28;20198;-69
2022/01/19 11:28:09;;;;;;;1.58;1.58;;;5.30;86.90;;;;;;5054617;28;20186;-69
2022/01/19 11:30:35;;;;;;;0.70;0.70;;;5.40;88.10;;;;;;5054844;28;20178;-69
2022/01/19 11:33:15;;;;;;;0.40;0.40;;;5.20;89.40;;;;;;5053450;28;20173;-69
2022/01/19 11:35:44;;;;;;;0.32;0.32;;;5.30;90.10;;;;;;5054958;28;20167;-69
2022/01/19 11:38:38;;;;;;;0.40;0.40;;;5.50;90.30;;;;;;5054498;28;20194;-69
2022/01/19 11:41:35;;;;;;;0.40;0.40;;;5.50;90.10;;;;;;5055036;28;20177;-69
2022/01/19 11:44:01;;;;;;;0.45;0.45;;;5.60;90.60;;;;;;5054645;28;20186;-69
2022/01/19 11:46:46;;;;;;;0.40;0.40;;;5.70;90.40;;;;;;5053080;28;20180;-69
2022/01/19 11:49:17;;;;;;;0.40;0.40;;;5.80;90.40;;;;;;5053939;28;20424;-69
2022/01/19 11:51:54;;;;;;;0.40;0.40;;;6.00;90.20;;;;;;5054441;28;20182;-69
2022/01/19 11:54:33;;;;;;;0.40;0.40;;;5.90;90.00;;;;;;5054305;28;20216;-69
2022/01/19 11:56:58;;;;;;;0.40;0.40;;;5.70;90.30;;;;;;5054353;28;20177;-69
2022/01/19 11:59:45;;;;;;;0.40;0.40;;;5.80;90.40;;;;;;5052368;28;20639;-69
2022/01/19 12:02:32;;;;;;;0.55;0.55;;;5.40;90.80;;;;;;5053379;28;20633;-69
2022/01/19 12:04:58;;;;;;;0.40;0.40;;;5.20;91.20;;;;;;5054080;28;20202;-69
2022/01/19 12:07:48;;;;;;;0.40;0.40;;;5.00;91.70;;;;;;5053865;28;20274;-69
2022/01/19 12:10:44;;;;;;;0.40;0.40;;;4.90;92.40;;;;;;5054060;28;20165;-69
2022/01/19 12:13:57;;;;;;;0.30;0.30;;;5.00;92.60;;;;;;5053967;28;20199;-69
2022/01/19 12:16:38;;;;;;;0.60;0.60;;;5.00;92.40;;;;;;5053810;28;20162;-69
2022/01/19 12:19:06;;;;;;;0.47;0.47;;;4.80;92.80;;;;;;5053814;28;20186;-69
2022/01/19 12:21:31;;;;;;;0.40;0.40;;;5.10;92.90;;;;;;5053988;28;20176;-69
2022/01/19 12:24:25;;;;;;;0.40;0.40;;;5.00;92.60;;;;;;5053756;28;20249;-69
2022/01/19 12:27:09;;;;;;;1.40;1.35;;;4.60;93.30;;;;;;5053521;28;20170;-69
2022/01/19 12:29:37;;;;;;;0.40;0.40;;;4.50;93.90;;;;;;5053656;28;20190;-69
2022/01/19 12:32:28;;;;;;;0.30;0.30;;;4.50;94.10;;;;;;5053674;28;20165;-69
2022/01/19 12:34:56;;;;;;;0.35;0.35;;;4.50;94.20;;;;;;5053587;28;20674;-69
2022/01/19 12:37:25;;;;;;;0.40;0.40;;;4.70;94.50;;;;;;5053519;28;20197;-69
2022/01/19 12:39:51;;;;;;;0.38;0.38;;;4.80;94.20;;;;;;5053498;28;20166;-69
2022/01/19 12:42:25;;;;;;;0.35;0.35;;;4.80;93.80;;;;;;5053519;28;20209;-69
2022/01/19 12:44:54;;;;;;;0.40;0.40;;;4.90;93.80;;;;;;5053632;28;20197;-69
2022/01/19 12:47:28;;;;;;;0.30;0.30;;;5.00;93.40;;;;;;5053398;28;20275;-69
2022/01/19 12:50:07;;;;;;;0.40;0.40;;;5.20;93.40;;;;;;5053423;28;20622;-69
2022/01/19 12:52:39;;;;;;;0.40;0.40;;;5.10;93.00;;;;;;5053652;28;20166;-69
2022/01/19 12:55:22;;;;;;;0.40;0.40;;;4.90;93.00;;;;;;5053438;28;20534;-69
2022/01/19 12:57:48;;;;;;;0.40;0.40;;;4.80;93.30;;;;;;5053515;28;20190;-69
2022/01/19 13:00:20;;;;;;;0.40;0.40;;;4.70;93.40;;;;;;5053194;28;20205;-69
2022/01/19 13:02:46;;;;;;;0.40;0.40;;;4.60;93.60;;;;;;5053464;28;20178;-69
2022/01/19 13:05:17;;;;;;;0.40;0.40;;;4.60;94.00;;;;;;5053196;28;20263;-69
2022/01/19 13:07:52;;;;;;;0.40;0.40;;;4.60;94.10;;;;;;5053019;28;20194;-69
2022/01/19 13:10:44;;;;;;;0.40;0.40;;;4.40;93.90;;;;;;5053324;28;20158;-69
2022/01/19 13:13:13;;;;;;;0.40;0.40;;;4.50;94.50;;;;;;5056144;28;20162;-69
2022/01/19 13:15:54;;;;;;;0.40;0.40;;;4.50;94.00;;;;;;5057067;28;20170;-69
2022/01/19 13:18:28;;;;;;;0.40;0.40;;;4.40;94.00;;;;;;5057188;28;20277;-69
2022/01/19 13:20:56;;;;;;;0.82;0.82;;;4.20;94.30;;;;;;5057297;28;20635;-69
2022/01/19 13:23:23;;;;;;;0.40;0.40;;;4.30;94.50;;;;;;5057294;28;20178;-69
2022/01/19 13:26:02;;;;;;;0.38;0.38;;;4.30;94.40;;;;;;5057099;28;20545;-69
2022/01/19 13:28:30;;;;;;;0.40;0.40;;;4.50;94.50;;;;;;5057143;28;20190;-69
2022/01/19 13:31:17;;;;;;;0.38;0.38;;;4.70;94.00;;;;;;5057656;28;20557;-69
2022/01/19 13:33:55;;;;;;;1.77;1.67;;;4.90;93.60;;;;;;5055603;28;20181;-69
2022/01/19 13:36:39;;;;;;;0.40;0.40;;;4.90;93.00;;;;;;5056734;28;20170;-69
2022/01/19 13:39:05;;;;;;;0.40;0.40;;;5.10;93.10;;;;;;5056719;28;20194;-69
2022/01/19 13:41:31;;;;;;;0.40;0.40;;;5.10;92.70;;;;;;5056988;28;20261;-69
2022/01/19 13:44:08;;;;;;;0.40;0.40;;;5.20;92.70;;;;;;5056664;28;20454;-69
2022/01/19 13:46:38;;;;;;;0.40;0.40;;;5.20;92.40;;;;;;5056710;28;20162;-69
2022/01/19 13:49:05;;;;;;;0.40;0.40;;;5.00;92.30;;;;;;5056643;28;20225;-69
2022/01/19 13:51:32;;;;;;;0.40;0.40;;;4.90;92.40;;;;;;5056675;28;20173;-69
2022/01/19 13:54:05;;;;;;;0.40;0.40;;;4.70;92.40;;;;;;5056640;28;20178;-69
2022/01/19 13:56:37;;;;;;;0.40;0.40;;;4.70;92.70;;;;;;5056424;28;20174;-69
2022/01/19 13:59:05;;;;;;;0.40;0.40;;;4.50;92.90;;;;;;5056566;28;20198;-69
2022/01/19 14:02:01;;;;;;;0.40;0.40;;;4.40;93.10;;;;;;5056535;28;20185;-69
2022/01/19 14:04:32;;;;;;;0.40;0.40;;;4.40;93.20;;;;;;5056594;28;20194;-69
2022/01/19 14:07:05;;;;;;;0.40;0.40;;;4.50;93.00;;;;;;5056197;28;20174;-69
2022/01/19 14:09:32;;;;;;;0.40;0.40;;;4.40;92.90;;;;;;5056742;28;20170;-69
2022/01/19 14:12:09;;;;;;;0.40;0.40;;;4.40;93.00;;;;;;5056257;28;20177;-69
2022/01/19 14:14:47;;;;;;;0.40;0.40;;;4.30;93.00;;;;;;5056299;28;20538;-69
2022/01/19 14:17:24;;;;;;;0.40;0.40;;;4.20;93.00;;;;;;5056107;28;20181;-69
2022/01/19 14:19:50;;;;;;;0.30;0.30;;;4.40;93.40;;;;;;5056049;28;20693;-69
2022/01/19 14:22:19;;;;;;;0.40;0.40;;;4.40;93.10;;;;;;5055740;28;20596;-69
2022/01/19 14:24:49;;;;;;;0.30;0.30;;;4.40;93.00;;;;;;5055774;28;20243;-69
2022/01/19 14:27:16;;;;;;;0.40;0.40;;;4.30;93.20;;;;;;5055765;28;20248;-69
2022/01/19 14:29:57;;;;;;;0.30;0.30;;;4.50;93.10;;;;;;5055837;28;20174;-69
2022/01/19 14:32:37;;;;;;;0.40;0.40;;;4.30;92.70;;;;;;5055986;28;20169;-69
2022/01/19 14:35:36;;;;;;;0.35;0.35;;;4.30;92.80;;;;;;5055975;28;20223;-69
2022/01/19 14:38:05;;;;;;;0.50;0.50;;;4.10;93.10;;;;;;5055235;28;20205;-69